createdAt,value
2022-08-23T00:00:13.402Z,17.77
2022-08-23T00:03:01.644Z,17.72
2022-08-23T00:05:31.448Z,17.67
2022-08-23T00:07:59.804Z,17.65
2022-08-23T00:10:28.599Z,17.62
2022-08-23T00:12:56.686Z,17.58
2022-08-23T00:15:25.498Z,17.54
2022-08-23T00:17:53.600Z,17.51
2022-08-23T00:20:21.728Z,17.49
2022-08-23T00:22:49.647Z,17.47
2022-08-23T00:25:18.346Z,17.45
2022-08-23T00:27:46.238Z,17.44
2022-08-23T00:30:15.569Z,17.43
2022-08-23T00:32:45.466Z,17.43
2022-08-23T00:35:23.486Z,17.43
2022-08-23T00:38:33.660Z,17.42
2022-08-23T00:40:51.235Z,17.42
2022-08-23T00:43:46.284Z,17.43
2022-08-23T00:47:02.543Z,17.41
2022-08-23T00:49:33.611Z,17.39
2022-08-23T00:52:08.419Z,17.40
2022-08-23T00:54:39.679Z,17.39
2022-08-23T00:57:14.714Z,17.38
2022-08-23T00:59:42.660Z,17.38
2022-08-23T01:02:11.815Z,17.34
2022-08-23T01:04:50.453Z,17.32
2022-08-23T01:07:46.842Z,17.30
2022-08-23T01:10:39.798Z,17.26
2022-08-23T01:13:12.948Z,17.23
2022-08-23T01:16:13.821Z,17.22
2022-08-23T01:18:43.614Z,17.20
2022-08-23T01:21:22.010Z,17.18
2022-08-23T01:23:55.799Z,17.17
2022-08-23T01:26:25.462Z,17.16
2022-08-23T01:28:54.826Z,17.13
2022-08-23T01:31:23.984Z,17.13
2022-08-23T01:33:58.954Z,17.13
2022-08-23T01:36:28.506Z,17.12
2022-08-23T01:38:56.687Z,17.10
2022-08-23T01:41:25.019Z,17.09
2022-08-23T01:43:53.548Z,17.08
2022-08-23T01:46:25.136Z,17.05
2022-08-23T01:48:58.643Z,17.03
2022-08-23T01:51:31.133Z,17.01
2022-08-23T01:53:59.655Z,17.00
2022-08-23T01:56:38.845Z,17.00
2022-08-23T01:59:12.563Z,17.00
2022-08-23T02:01:53.945Z,16.98
2022-08-23T02:04:22.849Z,16.98
2022-08-23T02:06:50.856Z,16.96
2022-08-23T02:09:25.765Z,16.92
2022-08-23T02:11:58.320Z,16.86
2022-08-23T02:14:26.498Z,16.82
2022-08-23T02:17:04.304Z,16.76
2022-08-23T02:19:35.395Z,16.74
2022-08-23T02:22:05.782Z,16.74
2022-08-23T02:24:34.774Z,16.76
2022-08-23T02:27:05.345Z,16.76
2022-08-23T02:29:39.370Z,16.75
2022-08-23T02:32:10.827Z,16.76
2022-08-23T02:34:41.080Z,16.77
2022-08-23T02:37:11.128Z,16.78
2022-08-23T02:39:41.068Z,16.79
2022-08-23T02:42:11.646Z,16.81
2022-08-23T02:44:41.474Z,16.81
2022-08-23T02:47:12.057Z,16.81
2022-08-23T02:49:42.671Z,16.80
2022-08-23T02:52:11.018Z,16.78
2022-08-23T02:54:39.258Z,16.78
2022-08-23T02:57:07.328Z,16.76
2022-08-23T02:59:35.574Z,16.75
2022-08-23T03:02:03.595Z,16.75
2022-08-23T03:04:36.009Z,16.75
2022-08-23T03:07:04.462Z,16.74
2022-08-23T03:09:32.929Z,16.75
2022-08-23T03:12:01.003Z,16.75
2022-08-23T03:14:29.138Z,16.76
2022-08-23T03:16:59.463Z,16.76
2022-08-23T03:19:27.945Z,16.77
2022-08-23T03:21:56.226Z,16.79
2022-08-23T03:24:25.054Z,16.79
2022-08-23T03:26:54.015Z,16.77
2022-08-23T03:29:22.593Z,16.74
2022-08-23T03:32:00.910Z,16.74
2022-08-23T03:34:30.133Z,16.77
2022-08-23T03:36:59.297Z,16.80
2022-08-23T03:39:27.495Z,16.82
2022-08-23T03:41:56.241Z,16.83
2022-08-23T03:44:24.334Z,16.81
2022-08-23T03:46:52.324Z,16.81
2022-08-23T03:49:21.972Z,16.83
2022-08-23T03:51:54.284Z,16.89
2022-08-23T03:54:23.044Z,16.95
2022-08-23T03:57:00.668Z,17.00
2022-08-23T03:59:34.017Z,17.05
2022-08-23T04:02:02.391Z,17.05
2022-08-23T04:04:30.932Z,16.98
2022-08-23T04:07:22.116Z,16.97
2022-08-23T04:09:55.273Z,16.98
2022-08-23T04:12:26.049Z,17.00
2022-08-23T04:14:54.226Z,17.01
2022-08-23T04:17:23.014Z,16.99
2022-08-23T04:19:52.542Z,16.96
2022-08-23T04:22:21.383Z,16.97
2022-08-23T04:24:49.637Z,17.02
2022-08-23T04:27:18.244Z,17.08
2022-08-23T04:29:47.068Z,17.12
2022-08-23T04:32:26.444Z,17.19
2022-08-23T04:34:57.800Z,17.31
2022-08-23T04:37:26.400Z,17.41
2022-08-23T04:40:12.964Z,17.52
2022-08-23T04:42:43.932Z,17.63
2022-08-23T04:45:12.694Z,17.73
2022-08-23T04:47:45.029Z,17.86
2022-08-23T04:50:13.826Z,17.95
2022-08-23T04:53:12.246Z,18.07
2022-08-23T04:55:50.777Z,18.13
2022-08-23T04:58:19.650Z,18.25
2022-08-23T05:00:52.484Z,18.35
2022-08-23T05:03:25.935Z,18.47
2022-08-23T05:05:55.529Z,18.59
2022-08-23T05:08:28.387Z,18.75
2022-08-23T05:11:00.546Z,18.95
2022-08-23T05:13:30.218Z,19.14
2022-08-23T05:16:01.061Z,19.26
2022-08-23T05:18:33.566Z,19.38
2022-08-23T05:21:03.145Z,19.53
2022-08-23T05:23:32.214Z,19.63
2022-08-23T05:26:11.800Z,19.68
2022-08-23T05:28:45.181Z,19.77
2022-08-23T05:31:25.953Z,19.87
2022-08-23T05:33:56.203Z,20.03
2022-08-23T05:36:30.411Z,20.21
2022-08-23T05:38:59.035Z,20.45
2022-08-23T05:41:38.034Z,20.74
2022-08-23T05:44:10.615Z,20.94
2022-08-23T05:46:42.350Z,21.09
2022-08-23T05:49:22.478Z,21.37
2022-08-23T05:51:51.920Z,21.58
2022-08-23T05:54:21.335Z,21.87
2022-08-23T05:57:04.582Z,22.05
2022-08-23T05:59:33.121Z,22.00
2022-08-23T06:02:02.353Z,22.19
2022-08-23T06:04:31.476Z,22.60
2022-08-23T06:06:59.758Z,22.99
2022-08-23T06:09:28.500Z,23.43
2022-08-23T06:11:56.769Z,23.89
2022-08-23T06:14:25.098Z,24.36
2022-08-23T06:16:56.054Z,24.80
2022-08-23T06:19:27.509Z,25.20
2022-08-23T06:22:21.960Z,25.14
2022-08-23T06:24:50.543Z,25.32
2022-08-23T06:27:18.963Z,24.60
2022-08-23T06:29:48.708Z,24.33
2022-08-23T06:32:40.062Z,24.42
2022-08-23T06:35:37.791Z,24.01
2022-08-23T06:38:19.612Z,24.00
2022-08-23T06:40:48.220Z,24.52
2022-08-23T06:43:29.447Z,24.98
2022-08-23T06:46:28.269Z,25.11
2022-08-23T06:48:59.717Z,24.89
2022-08-23T06:51:31.031Z,24.56
2022-08-23T06:54:38.856Z,24.85
2022-08-23T06:57:24.010Z,25.01
2022-08-23T07:00:22.513Z,24.91
2022-08-23T07:03:17.793Z,24.96
2022-08-23T07:06:05.337Z,24.92
2022-08-23T07:08:36.343Z,24.86
2022-08-23T07:11:05.261Z,24.55
2022-08-23T07:13:33.468Z,24.56
2022-08-23T07:16:03.972Z,24.69
2022-08-23T07:18:34.086Z,25.01
2022-08-23T07:21:05.342Z,25.07
2022-08-23T07:23:35.207Z,25.04
2022-08-23T07:26:15.559Z,25.04
2022-08-23T07:28:45.092Z,25.31
2022-08-23T07:31:23.950Z,25.36
2022-08-23T07:33:52.326Z,25.35
2022-08-23T07:36:23.488Z,25.80
2022-08-23T07:38:53.503Z,26.03
2022-08-23T07:41:24.926Z,26.17
2022-08-23T07:43:55.184Z,26.36
2022-08-23T07:46:23.307Z,26.47
2022-08-23T07:48:54.837Z,26.54
2022-08-23T07:51:36.103Z,26.66
2022-08-23T07:54:07.536Z,26.75
2022-08-23T07:56:41.891Z,26.75
2022-08-23T07:59:18.819Z,26.43
2022-08-23T08:02:05.931Z,26.53
2022-08-23T08:04:36.066Z,26.73
2022-08-23T08:07:18.784Z,26.54
2022-08-23T08:09:49.993Z,26.14
2022-08-23T08:12:18.542Z,25.96
2022-08-23T08:14:48.597Z,26.12
2022-08-23T08:17:18.645Z,26.33
2022-08-23T08:20:04.415Z,26.30
2022-08-23T08:22:35.609Z,26.51
2022-08-23T08:25:22.274Z,26.71
2022-08-23T08:27:51.131Z,26.74
2022-08-23T08:30:19.401Z,26.50
2022-08-23T08:32:47.814Z,26.15
2022-08-23T08:35:16.769Z,26.19
2022-08-23T08:37:45.577Z,26.20
2022-08-23T08:40:23.648Z,25.96
2022-08-23T08:43:28.601Z,25.89
2022-08-23T08:46:18.276Z,25.93
2022-08-23T08:48:52.590Z,25.87
2022-08-23T08:51:47.284Z,25.95
2022-08-23T08:54:22.953Z,26.04
2022-08-23T08:56:56.135Z,26.04
2022-08-23T08:59:42.853Z,26.06
2022-08-23T09:02:20.085Z,26.09
2022-08-23T09:05:06.020Z,26.26
2022-08-23T09:07:50.374Z,26.32
2022-08-23T09:10:46.758Z,26.32
2022-08-23T09:13:32.464Z,26.32
2022-08-23T09:16:29.480Z,26.29
2022-08-23T09:19:01.903Z,26.08
2022-08-23T09:21:41.156Z,25.97
2022-08-23T09:24:10.210Z,25.91
2022-08-23T09:26:52.063Z,25.88
2022-08-23T09:29:30.173Z,25.78
2022-08-23T09:32:02.768Z,25.71
2022-08-23T09:34:36.443Z,25.77
2022-08-23T09:37:13.881Z,25.87
2022-08-23T09:39:46.161Z,26.03
2022-08-23T09:42:36.096Z,26.31
2022-08-23T09:45:06.666Z,26.64
2022-08-23T09:47:41.777Z,26.76
2022-08-23T09:50:39.528Z,26.63
2022-08-23T09:53:14.924Z,26.43
2022-08-23T09:55:51.646Z,26.38
2022-08-23T09:58:40.909Z,26.23
2022-08-23T10:01:20.585Z,26.11
2022-08-23T10:04:14.596Z,26.12
2022-08-23T10:06:46.446Z,26.15
2022-08-23T10:09:31.868Z,26.23
2022-08-23T10:12:01.641Z,26.42
2022-08-23T10:14:33.944Z,26.57
2022-08-23T10:17:20.958Z,26.59
2022-08-23T10:20:06.122Z,26.63
2022-08-23T10:22:52.366Z,26.56
2022-08-23T10:25:48.301Z,26.71
2022-08-23T10:28:47.845Z,26.89
2022-08-23T10:31:32.303Z,26.92
2022-08-23T10:34:18.967Z,26.89
2022-08-23T10:37:29.656Z,26.85
2022-08-23T10:40:11.357Z,26.78
2022-08-23T10:42:43.498Z,26.85
2022-08-23T10:45:25.709Z,26.80
2022-08-23T10:48:11.149Z,26.83
2022-08-23T10:50:55.465Z,27.05
2022-08-23T10:53:35.584Z,27.13
2022-08-23T10:56:08.516Z,27.08
2022-08-23T10:58:50.448Z,27.12
2022-08-23T11:01:26.500Z,27.14
2022-08-23T11:04:04.330Z,27.11
2022-08-23T11:06:47.461Z,27.13
2022-08-23T11:09:18.830Z,27.22
2022-08-23T11:11:50.315Z,27.26
2022-08-23T11:14:30.926Z,27.37
2022-08-23T11:17:03.753Z,27.53
2022-08-23T11:19:59.013Z,27.64
2022-08-23T11:22:32.028Z,27.78
2022-08-23T11:25:01.982Z,27.95
2022-08-23T11:27:44.593Z,28.03
2022-08-23T11:30:34.411Z,28.08
2022-08-23T11:33:48.536Z,28.10
2022-08-23T11:36:22.003Z,28.16
2022-08-23T11:38:50.312Z,28.13
2022-08-23T11:41:18.930Z,28.10
2022-08-23T11:43:50.337Z,28.14
2022-08-23T11:46:27.596Z,28.23
2022-08-23T11:49:31.236Z,28.12
2022-08-23T11:52:20.692Z,28.11
2022-08-23T11:55:07.628Z,28.10
2022-08-23T11:58:05.688Z,28.13
2022-08-23T12:00:52.637Z,28.30
2022-08-23T12:03:34.054Z,28.52
2022-08-23T12:06:21.354Z,28.65
2022-08-23T12:09:02.145Z,28.58
2022-08-23T12:11:55.116Z,28.50
2022-08-23T12:14:32.756Z,28.54
2022-08-23T12:17:04.070Z,28.61
2022-08-23T12:19:41.446Z,28.75
2022-08-23T12:22:14.335Z,28.85
2022-08-23T12:25:04.785Z,28.71
2022-08-23T12:27:39.498Z,28.56
2022-08-23T12:30:07.808Z,28.48
2022-08-23T12:32:58.463Z,28.43
2022-08-23T12:35:36.322Z,28.38
2022-08-23T12:38:29.428Z,28.42
2022-08-23T12:40:58.101Z,28.52
2022-08-23T12:43:30.487Z,28.64
2022-08-23T12:46:01.909Z,28.78
2022-08-23T12:48:45.668Z,28.85
2022-08-23T12:51:14.228Z,28.92
2022-08-23T12:53:46.177Z,29.02
2022-08-23T12:56:31.996Z,29.16
2022-08-23T12:59:08.409Z,29.26
2022-08-23T13:01:43.567Z,29.41
2022-08-23T13:04:16.648Z,29.48
2022-08-23T13:07:05.708Z,29.44
2022-08-23T13:09:40.173Z,29.45
2022-08-23T13:12:12.535Z,29.51
2022-08-23T13:14:43.105Z,29.58
2022-08-23T13:17:28.549Z,29.68
2022-08-23T13:20:07.921Z,29.74
2022-08-23T13:22:40.641Z,29.79
2022-08-23T13:25:31.382Z,29.73
2022-08-23T13:28:07.558Z,29.83
2022-08-23T13:30:39.483Z,29.82
2022-08-23T13:33:10.986Z,29.89
2022-08-23T13:35:49.701Z,29.90
2022-08-23T13:38:31.968Z,29.94
2022-08-23T13:41:13.218Z,29.91
2022-08-23T13:43:48.219Z,29.89
2022-08-23T13:46:30.175Z,29.93
2022-08-23T13:49:16.733Z,30.10
2022-08-23T13:54:53.048Z,30.05
2022-08-23T13:57:25.626Z,29.95
2022-08-23T13:59:59.498Z,29.86
2022-08-23T14:02:30.283Z,29.90
2022-08-23T14:04:59.611Z,29.87
2022-08-23T14:07:29.257Z,29.71
2022-08-23T14:09:59.216Z,29.60
2022-08-23T14:12:33.673Z,29.56
2022-08-23T14:15:06.397Z,29.49
2022-08-23T14:17:43.424Z,29.45
2022-08-23T14:23:11.470Z,29.40
2022-08-23T14:25:43.224Z,29.33
2022-08-23T14:28:14.262Z,29.32
2022-08-23T14:30:44.214Z,29.27
2022-08-23T14:33:14.969Z,29.23
2022-08-23T14:35:45.776Z,29.18
2022-08-23T14:38:16.263Z,29.10
2022-08-23T14:40:53.493Z,29.01
2022-08-23T14:43:23.101Z,29.02
2022-08-23T14:45:57.496Z,29.02
2022-08-23T14:48:27.655Z,29.00
2022-08-23T14:50:57.649Z,29.05
2022-08-23T14:53:30.289Z,29.07
2022-08-23T14:56:20.764Z,29.07
2022-08-23T14:58:50.604Z,29.14
2022-08-23T15:01:21.310Z,29.20
2022-08-23T15:03:51.875Z,29.22
2022-08-23T15:06:22.534Z,29.22
2022-08-23T15:08:52.290Z,29.08
2022-08-23T15:14:12.451Z,28.97
2022-08-23T15:16:42.156Z,28.91
2022-08-23T15:19:11.985Z,28.63
2022-08-23T15:21:41.842Z,28.29
2022-08-23T15:24:11.558Z,27.50
2022-08-23T15:26:41.571Z,26.25
2022-08-23T15:29:11.406Z,25.43
2022-08-23T15:31:40.768Z,24.86
2022-08-23T15:34:12.799Z,24.42
2022-08-23T15:36:42.616Z,23.69
2022-08-23T15:39:11.421Z,23.04
2022-08-23T15:41:41.361Z,22.37
2022-08-23T15:44:10.097Z,21.63
2022-08-23T15:46:39.660Z,20.44
2022-08-23T15:49:14.681Z,19.88
2022-08-23T15:51:43.316Z,19.65
2022-08-23T15:54:12.113Z,19.30
2022-08-23T15:56:45.500Z,19.12
2022-08-23T15:59:17.255Z,19.06
2022-08-23T16:01:45.681Z,19.01
2022-08-23T16:04:14.352Z,18.99
2022-08-23T16:06:45.546Z,18.98
2022-08-23T16:09:21.135Z,18.97
2022-08-23T16:11:50.322Z,18.93
2022-08-23T16:14:18.958Z,18.91
2022-08-23T16:16:48.694Z,18.92
2022-08-23T16:19:17.361Z,18.93
2022-08-23T16:21:53.318Z,18.95
2022-08-23T16:24:24.536Z,18.98
2022-08-23T16:26:54.196Z,19.00
2022-08-23T16:29:22.923Z,19.00
2022-08-23T16:31:52.421Z,18.99
2022-08-23T16:34:20.890Z,18.99
2022-08-23T16:36:55.127Z,18.97
2022-08-23T16:39:24.178Z,18.95
2022-08-23T16:41:52.812Z,18.95
2022-08-23T16:44:21.623Z,18.93
2022-08-23T16:46:52.069Z,18.91
2022-08-23T16:49:20.977Z,18.91
2022-08-23T16:51:50.393Z,18.87
2022-08-23T16:54:19.591Z,18.78
2022-08-23T16:56:48.257Z,18.66
2022-08-23T16:59:16.686Z,18.56
2022-08-23T17:01:48.640Z,18.47
2022-08-23T17:04:18.740Z,18.50
2022-08-23T17:06:48.208Z,18.49
2022-08-23T17:09:16.956Z,18.46
2022-08-23T17:11:46.771Z,18.44
2022-08-23T17:14:15.918Z,18.41
2022-08-23T17:16:45.278Z,18.38
2022-08-23T17:19:14.664Z,18.36
2022-08-23T17:21:43.530Z,18.37
2022-08-23T17:24:11.761Z,18.35
2022-08-23T17:26:40.129Z,18.33
2022-08-23T17:29:09.954Z,18.35
2022-08-23T17:31:38.878Z,18.36
2022-08-23T17:34:07.680Z,18.35
2022-08-23T17:36:48.897Z,18.34
2022-08-23T17:39:22.516Z,18.35
2022-08-23T17:41:51.037Z,18.37
2022-08-23T17:44:20.430Z,18.39
2022-08-23T17:46:49.531Z,18.38
2022-08-23T17:49:18.933Z,18.40
2022-08-23T17:51:49.938Z,18.42
2022-08-23T17:54:18.694Z,18.43
2022-08-23T17:56:49.909Z,18.43
2022-08-23T17:59:20.149Z,18.42
2022-08-23T18:01:48.094Z,18.41
2022-08-23T18:04:16.343Z,18.38
2022-08-23T18:06:44.872Z,18.42
2022-08-23T18:09:12.943Z,18.43
2022-08-23T18:11:41.040Z,18.47
2022-08-23T18:14:09.593Z,18.50
2022-08-23T18:16:38.693Z,18.49
2022-08-23T18:19:12.992Z,18.47
2022-08-23T18:21:43.103Z,18.44
2022-08-23T18:24:11.468Z,18.41
2022-08-23T18:26:58.481Z,18.39
2022-08-23T18:29:27.600Z,18.40
2022-08-23T18:31:55.941Z,18.41
2022-08-23T18:34:24.265Z,18.41
2022-08-23T18:36:53.886Z,18.42
2022-08-23T18:39:31.392Z,18.43
2022-08-23T18:42:01.791Z,18.45
2022-08-23T18:44:30.403Z,18.46
2022-08-23T18:47:00.088Z,18.48
2022-08-23T18:49:28.965Z,18.47
2022-08-23T18:51:57.038Z,18.51
2022-08-23T18:54:25.281Z,18.52
2022-08-23T18:56:53.492Z,18.51
2022-08-23T18:59:21.511Z,18.54
2022-08-23T19:01:49.725Z,18.54
2022-08-23T19:04:18.381Z,18.54
2022-08-23T19:06:47.109Z,18.53
2022-08-23T19:09:15.181Z,18.50
2022-08-23T19:11:44.498Z,18.38
2022-08-23T19:14:12.904Z,18.27
2022-08-23T19:16:47.242Z,18.16
2022-08-23T19:19:17.154Z,18.09
2022-08-23T19:21:45.500Z,18.06
2022-08-23T19:24:13.712Z,18.03
2022-08-23T19:26:44.705Z,17.98
2022-08-23T19:29:16.373Z,17.80
2022-08-23T19:31:48.274Z,17.76
2022-08-23T19:34:19.741Z,17.75
2022-08-23T19:36:53.592Z,17.78
2022-08-23T19:39:30.507Z,17.80
2022-08-23T19:41:58.712Z,17.81
2022-08-23T19:44:28.206Z,17.81
2022-08-23T19:46:56.250Z,17.81
2022-08-23T19:49:24.802Z,17.82
2022-08-23T19:51:52.863Z,17.79
2022-08-23T19:54:21.470Z,17.77
2022-08-23T19:56:52.422Z,17.77
2022-08-23T19:59:24.618Z,17.77
2022-08-23T20:01:55.160Z,17.78
2022-08-23T20:04:25.319Z,17.78
2022-08-23T20:06:53.592Z,17.80
2022-08-23T20:09:22.593Z,17.80
2022-08-23T20:11:55.457Z,17.80
2022-08-23T20:14:25.089Z,17.79
2022-08-23T20:16:54.450Z,17.80
2022-08-23T20:19:22.745Z,17.82
2022-08-23T20:21:51.216Z,17.81
2022-08-23T20:24:32.614Z,17.79
2022-08-23T20:27:07.483Z,17.78
2022-08-23T20:29:39.847Z,17.80
2022-08-23T20:32:08.969Z,17.81
2022-08-23T20:34:37.693Z,17.84
2022-08-23T20:37:06.085Z,17.88
2022-08-23T20:39:33.999Z,17.91
2022-08-23T20:42:02.340Z,17.92
2022-08-23T20:44:30.368Z,17.93
2022-08-23T20:47:02.807Z,17.89
2022-08-23T20:49:31.366Z,17.87
2022-08-23T20:51:59.316Z,17.87
2022-08-23T20:54:27.607Z,17.86
2022-08-23T20:56:56.120Z,17.81
2022-08-23T20:59:24.229Z,17.79
2022-08-23T21:01:52.330Z,17.74
2022-08-23T21:04:21.108Z,17.76
2022-08-23T21:06:52.153Z,17.81
2022-08-23T21:09:24.709Z,17.83
2022-08-23T21:11:57.828Z,17.85
2022-08-23T21:14:25.916Z,17.84
2022-08-23T21:16:54.062Z,17.85
2022-08-23T21:19:22.072Z,17.86
2022-08-23T21:21:50.304Z,17.90
2022-08-23T21:24:18.337Z,17.90
2022-08-23T21:26:46.255Z,17.91
2022-08-23T21:29:14.221Z,17.89
2022-08-23T21:31:42.235Z,17.90
2022-08-23T21:34:10.207Z,17.93
2022-08-23T21:36:38.604Z,17.97
2022-08-23T21:39:06.683Z,17.97
2022-08-23T21:41:39.913Z,17.96
2022-08-23T21:44:14.758Z,17.99
2022-08-23T21:46:44.014Z,17.98
2022-08-23T21:49:12.850Z,18.00
2022-08-23T21:51:42.123Z,18.00
2022-08-23T21:54:11.797Z,18.00
2022-08-23T21:56:39.967Z,17.99
2022-08-23T21:59:12.470Z,17.99
2022-08-23T22:01:42.986Z,17.99
2022-08-23T22:04:14.180Z,17.98
2022-08-23T22:06:45.159Z,17.92
2022-08-23T22:09:16.772Z,17.92
2022-08-23T22:11:46.757Z,17.92
2022-08-23T22:14:20.975Z,17.90
2022-08-23T22:16:55.275Z,17.88
2022-08-23T22:19:24.270Z,17.89
2022-08-23T22:21:53.252Z,17.89
2022-08-23T22:24:25.599Z,17.90
2022-08-23T22:26:55.632Z,17.91
2022-08-23T22:29:24.898Z,17.92
2022-08-23T22:31:52.986Z,17.92
2022-08-23T22:34:21.338Z,17.90
2022-08-23T22:36:51.933Z,17.90
2022-08-23T22:39:22.744Z,17.87
2022-08-23T22:41:50.854Z,17.87
2022-08-23T22:44:18.879Z,17.88
2022-08-23T22:46:47.724Z,17.85
2022-08-23T22:49:16.808Z,17.82
2022-08-23T22:51:44.819Z,17.75
2022-08-23T22:54:14.518Z,17.73
2022-08-23T22:56:48.685Z,17.70
2022-08-23T22:59:18.796Z,17.67
2022-08-23T23:01:52.388Z,17.65
2022-08-23T23:04:23.160Z,17.58
2022-08-23T23:06:51.513Z,17.55
2022-08-23T23:09:19.867Z,17.58
2022-08-23T23:11:48.363Z,17.59
2022-08-23T23:14:18.618Z,17.53
2022-08-23T23:16:49.350Z,17.51
2022-08-23T23:19:36.886Z,17.48
2022-08-23T23:22:07.950Z,17.45
2022-08-23T23:24:39.663Z,17.43
2022-08-23T23:27:08.577Z,17.40
2022-08-23T23:29:36.598Z,17.37
2022-08-23T23:32:05.860Z,17.35
2022-08-23T23:34:34.823Z,17.34
2022-08-23T23:37:02.803Z,17.34
2022-08-23T23:39:30.820Z,17.33
2022-08-23T23:41:58.893Z,17.32
2022-08-23T23:44:31.142Z,17.26
2022-08-23T23:47:03.179Z,17.23
2022-08-23T23:49:33.510Z,17.21
2022-08-23T23:52:07.451Z,17.19
2022-08-23T23:54:35.768Z,17.18
2022-08-23T23:57:05.950Z,17.16
2022-08-23T23:59:34.646Z,17.16
